Terminal Aerodrome Forecast
Issued by NWS

Home | Current Version | Previous Version | Text Only | Print | Product List | Glossary On
Versions: 1 2 3 4 5 6 7 8 9 10 11 12 13 14 15 16
000
FTUS41 KCAR 292340
TAFFVE
TAF
KFVE 292340Z 3000/3024 22007KT P6SM SCT120 BKN220
     FM301000 18009KT P6SM BKN080 OVC150
     FM301400 17010G18KT P6SM OVC050
     FM301600 18013G21KT 6SM -SHRASN OVC030
     FM301800 18013G21KT 5SM -SHRA OVC020
     FM302100 18010G18KT 3SM -SHRASN OVC010=

USA.gov is the U.S. government's official web portal to all federal, state and local government web resources and services.